sensor_id;sensor_type;location;lat;lon;timestamp;P1;durP1;ratioP1;P2;durP2;ratioP2
13075;SDS011;6604;52.484;13.330;2022-09-21T07:48:06;5.00;;;3.67;;
13075;SDS011;6604;52.484;13.330;2022-09-21T07:50:33;6.40;;;4.57;;
13075;SDS011;6604;52.484;13.330;2022-09-21T07:53:00;5.47;;;4.70;;
13075;SDS011;6604;52.484;13.330;2022-09-21T07:55:27;7.20;;;4.93;;
13075;SDS011;6604;52.484;13.330;2022-09-21T07:57:53;5.60;;;4.50;;
13075;SDS011;6604;52.484;13.330;2022-09-21T08:00:37;5.93;;;5.03;;
13075;SDS011;6604;52.484;13.330;2022-09-21T08:03:03;7.00;;;4.53;;
13075;SDS011;6604;52.484;13.330;2022-09-21T08:05:31;7.90;;;4.50;;
13075;SDS011;6604;52.484;13.330;2022-09-21T08:08:01;6.40;;;4.30;;
13075;SDS011;6604;52.484;13.330;2022-09-21T08:10:28;5.00;;;4.50;;
13075;SDS011;6604;52.484;13.330;2022-09-21T08:12:56;6.27;;;5.37;;
13075;SDS011;6604;52.484;13.330;2022-09-21T08:15:22;10.57;;;4.53;;
13075;SDS011;6604;52.484;13.330;2022-09-21T08:17:49;8.53;;;4.33;;
13075;SDS011;6604;52.484;13.330;2022-09-21T08:20:16;5.53;;;4.70;;
13075;SDS011;6604;52.484;13.330;2022-09-21T08:22:44;6.73;;;4.53;;
13075;SDS011;6604;52.484;13.330;2022-09-21T08:25:10;5.87;;;4.43;;
13075;SDS011;6604;52.484;13.330;2022-09-21T08:27:36;4.90;;;4.50;;
13075;SDS011;6604;52.484;13.330;2022-09-21T08:30:04;5.43;;;4.20;;
13075;SDS011;6604;52.484;13.330;2022-09-21T08:32:31;7.83;;;4.30;;
13075;SDS011;6604;52.484;13.330;2022-09-21T08:34:58;5.03;;;4.20;;
13075;SDS011;6604;52.484;13.330;2022-09-21T08:37:24;6.37;;;4.53;;
13075;SDS011;6604;52.484;13.330;2022-09-21T08:39:52;6.17;;;4.27;;
13075;SDS011;6604;52.484;13.330;2022-09-21T08:42:24;6.90;;;4.33;;
13075;SDS011;6604;52.484;13.330;2022-09-21T08:44:58;6.00;;;4.27;;
13075;SDS011;6604;52.484;13.330;2022-09-21T08:47:27;8.30;;;4.33;;
13075;SDS011;6604;52.484;13.330;2022-09-21T08:49:54;4.70;;;4.20;;
13075;SDS011;6604;52.484;13.330;2022-09-21T08:52:22;6.00;;;4.30;;
13075;SDS011;6604;52.484;13.330;2022-09-21T08:54:52;5.97;;;4.60;;
13075;SDS011;6604;52.484;13.330;2022-09-21T08:57:21;6.57;;;4.50;;
13075;SDS011;6604;52.484;13.330;2022-09-21T08:59:48;5.33;;;4.57;;
13075;SDS011;6604;52.484;13.330;2022-09-21T09:02:37;5.60;;;4.17;;
13075;SDS011;6604;52.484;13.330;2022-09-21T09:05:06;5.73;;;5.00;;
13075;SDS011;6604;52.484;13.330;2022-09-21T09:07:44;5.77;;;4.40;;
13075;SDS011;6604;52.484;13.330;2022-09-21T09:10:18;7.13;;;4.77;;
13075;SDS011;6604;52.484;13.330;2022-09-21T09:12:53;6.73;;;5.00;;
13075;SDS011;6604;52.484;13.330;2022-09-21T09:18:06;6.90;;;4.03;;
13075;SDS011;6604;52.484;13.330;2022-09-21T09:20:35;7.07;;;4.47;;
13075;SDS011;6604;52.484;13.330;2022-09-21T09:23:04;4.87;;;4.47;;
13075;SDS011;6604;52.484;13.330;2022-09-21T09:25:35;5.40;;;4.90;;
13075;SDS011;6604;52.484;13.330;2022-09-21T09:28:05;5.33;;;4.73;;
13075;SDS011;6604;52.484;13.330;2022-09-21T09:30:35;6.73;;;5.27;;
13075;SDS011;6604;52.484;13.330;2022-09-21T09:33:04;6.37;;;4.80;;
13075;SDS011;6604;52.484;13.330;2022-09-21T09:35:33;7.43;;;4.80;;
13075;SDS011;6604;52.484;13.330;2022-09-21T09:38:02;4.70;;;3.90;;
13075;SDS011;6604;52.484;13.330;2022-09-21T09:40:35;6.30;;;4.40;;
13075;SDS011;6604;52.484;13.330;2022-09-21T09:43:08;5.43;;;3.50;;
13075;SDS011;6604;52.484;13.330;2022-09-21T09:45:38;5.83;;;4.00;;
13075;SDS011;6604;52.484;13.330;2022-09-21T09:48:09;4.50;;;3.67;;
13075;SDS011;6604;52.484;13.330;2022-09-21T09:50:40;4.60;;;3.50;;
13075;SDS011;6604;52.484;13.330;2022-09-21T09:53:08;6.07;;;3.60;;
13075;SDS011;6604;52.484;13.330;2022-09-21T09:55:36;4.23;;;3.60;;
13075;SDS011;6604;52.484;13.330;2022-09-21T09:58:04;7.57;;;4.33;;
13075;SDS011;6604;52.484;13.330;2022-09-21T10:00:32;5.13;;;3.13;;
13075;SDS011;6604;52.484;13.330;2022-09-21T10:02:58;6.67;;;3.10;;
13075;SDS011;6604;52.484;13.330;2022-09-21T10:05:30;6.17;;;2.90;;
13075;SDS011;6604;52.484;13.330;2022-09-21T10:07:57;3.10;;;2.80;;
13075;SDS011;6604;52.484;13.330;2022-09-21T10:10:31;5.90;;;3.20;;
13075;SDS011;6604;52.484;13.330;2022-09-21T10:13:02;3.57;;;3.00;;
13075;SDS011;6604;52.484;13.330;2022-09-21T10:15:31;3.17;;;2.70;;
13075;SDS011;6604;52.484;13.330;2022-09-21T10:18:00;2.70;;;2.47;;
13075;SDS011;6604;52.484;13.330;2022-09-21T10:20:27;2.60;;;2.40;;
13075;SDS011;6604;52.484;13.330;2022-09-21T10:22:54;3.90;;;2.77;;
13075;SDS011;6604;52.484;13.330;2022-09-21T10:25:21;3.43;;;2.90;;
13075;SDS011;6604;52.484;13.330;2022-09-21T10:27:48;2.47;;;2.27;;
13075;SDS011;6604;52.484;13.330;2022-09-21T10:30:31;2.53;;;2.07;;
13075;SDS011;6604;52.484;13.330;2022-09-21T10:32:59;2.40;;;1.93;;
13075;SDS011;6604;52.484;13.330;2022-09-21T10:35:26;2.97;;;1.70;;
13075;SDS011;6604;52.484;13.330;2022-09-21T10:38:07;3.33;;;1.47;;
13075;SDS011;6604;52.484;13.330;2022-09-21T10:40:34;2.37;;;1.50;;
13075;SDS011;6604;52.484;13.330;2022-09-21T10:43:01;2.00;;;1.43;;
13075;SDS011;6604;52.484;13.330;2022-09-21T10:45:28;1.17;;;1.07;;
13075;SDS011;6604;52.484;13.330;2022-09-21T10:47:56;0.90;;;0.90;;
13075;SDS011;6604;52.484;13.330;2022-09-21T10:50:26;1.20;;;1.07;;
13075;SDS011;6604;52.484;13.330;2022-09-21T10:52:55;0.80;;;0.80;;
13075;SDS011;6604;52.484;13.330;2022-09-21T10:55:22;1.73;;;1.00;;
13075;SDS011;6604;52.484;13.330;2022-09-21T10:57:50;2.40;;;1.03;;
13075;SDS011;6604;52.484;13.330;2022-09-21T11:00:26;1.63;;;0.80;;
13075;SDS011;6604;52.484;13.330;2022-09-21T11:02:53;1.00;;;0.97;;
13075;SDS011;6604;52.484;13.330;2022-09-21T11:05:21;1.37;;;1.27;;
13075;SDS011;6604;52.484;13.330;2022-09-21T11:07:50;1.20;;;1.10;;
13075;SDS011;6604;52.484;13.330;2022-09-21T11:10:19;1.00;;;1.00;;
13075;SDS011;6604;52.484;13.330;2022-09-21T11:13:03;1.37;;;1.13;;
13075;SDS011;6604;52.484;13.330;2022-09-21T11:15:36;1.67;;;1.10;;
13075;SDS011;6604;52.484;13.330;2022-09-21T11:18:05;2.73;;;0.83;;
13075;SDS011;6604;52.484;13.330;2022-09-21T11:20:34;1.40;;;1.30;;
13075;SDS011;6604;52.484;13.330;2022-09-21T11:23:09;4.33;;;2.23;;
13075;SDS011;6604;52.484;13.330;2022-09-21T11:25:39;2.97;;;2.53;;
13075;SDS011;6604;52.484;13.330;2022-09-21T11:28:09;6.40;;;3.00;;
13075;SDS011;6604;52.484;13.330;2022-09-21T11:30:45;2.57;;;1.37;;
13075;SDS011;6604;52.484;13.330;2022-09-21T11:33:16;1.67;;;1.40;;
13075;SDS011;6604;52.484;13.330;2022-09-21T11:35:46;2.43;;;1.43;;
13075;SDS011;6604;52.484;13.330;2022-09-21T11:38:19;1.60;;;1.50;;
13075;SDS011;6604;52.484;13.330;2022-09-21T11:40:50;2.30;;;1.27;;
13075;SDS011;6604;52.484;13.330;2022-09-21T11:43:26;1.47;;;1.10;;
13075;SDS011;6604;52.484;13.330;2022-09-21T11:45:56;1.20;;;1.20;;
13075;SDS011;6604;52.484;13.330;2022-09-21T11:48:30;1.80;;;1.20;;
13075;SDS011;6604;52.484;13.330;2022-09-21T11:51:04;2.40;;;1.13;;
13075;SDS011;6604;52.484;13.330;2022-09-21T11:53:40;1.20;;;1.10;;
13075;SDS011;6604;52.484;13.330;2022-09-21T11:56:23;2.00;;;1.20;;
13075;SDS011;6604;52.484;13.330;2022-09-21T11:58:57;3.13;;;1.30;;
13075;SDS011;6604;52.484;13.330;2022-09-21T12:01:38;2.50;;;1.20;;
13075;SDS011;6604;52.484;13.330;2022-09-21T12:04:28;1.30;;;1.20;;
13075;SDS011;6604;52.484;13.330;2022-09-21T12:06:59;1.17;;;0.97;;
13075;SDS011;6604;52.484;13.330;2022-09-21T12:09:38;1.43;;;1.20;;
13075;SDS011;6604;52.484;13.330;2022-09-21T12:12:08;2.00;;;1.30;;
13075;SDS011;6604;52.484;13.330;2022-09-21T12:14:38;1.33;;;1.03;;
13075;SDS011;6604;52.484;13.330;2022-09-21T12:17:09;2.73;;;1.47;;
13075;SDS011;6604;52.484;13.330;2022-09-21T12:19:39;2.60;;;2.40;;
13075;SDS011;6604;52.484;13.330;2022-09-21T12:22:08;1.30;;;1.17;;
13075;SDS011;6604;52.484;13.330;2022-09-21T12:24:38;3.00;;;1.63;;
13075;SDS011;6604;52.484;13.330;2022-09-21T12:27:08;2.33;;;1.13;;
13075;SDS011;6604;52.484;13.330;2022-09-21T12:29:37;1.10;;;1.00;;
13075;SDS011;6604;52.484;13.330;2022-09-21T12:32:10;2.90;;;1.10;;
13075;SDS011;6604;52.484;13.330;2022-09-21T12:34:41;5.63;;;1.30;;
13075;SDS011;6604;52.484;13.330;2022-09-21T12:37:10;2.30;;;1.20;;
13075;SDS011;6604;52.484;13.330;2022-09-21T12:39:41;1.00;;;1.00;;
13075;SDS011;6604;52.484;13.330;2022-09-21T12:42:18;1.37;;;1.10;;
13075;SDS011;6604;52.484;13.330;2022-09-21T12:44:47;2.30;;;1.60;;
13075;SDS011;6604;52.484;13.330;2022-09-21T12:47:18;1.50;;;1.20;;
13075;SDS011;6604;52.484;13.330;2022-09-21T12:49:47;1.10;;;1.10;;
13075;SDS011;6604;52.484;13.330;2022-09-21T12:52:18;1.90;;;1.40;;
13075;SDS011;6604;52.484;13.330;2022-09-21T12:54:49;1.60;;;1.40;;
13075;SDS011;6604;52.484;13.330;2022-09-21T12:57:19;1.70;;;1.20;;
13075;SDS011;6604;52.484;13.330;2022-09-21T12:59:54;1.10;;;1.10;;
13075;SDS011;6604;52.484;13.330;2022-09-21T13:02:27;1.27;;;1.10;;
13075;SDS011;6604;52.484;13.330;2022-09-21T13:04:59;1.30;;;1.13;;
13075;SDS011;6604;52.484;13.330;2022-09-21T13:07:37;1.20;;;1.10;;
13075;SDS011;6604;52.484;13.330;2022-09-21T13:10:11;1.43;;;1.10;;
13075;SDS011;6604;52.484;13.330;2022-09-21T13:12:40;2.67;;;1.17;;
13075;SDS011;6604;52.484;13.330;2022-09-21T13:15:11;1.90;;;1.03;;
13075;SDS011;6604;52.484;13.330;2022-09-21T13:17:38;1.40;;;1.30;;
13075;SDS011;6604;52.484;13.330;2022-09-21T13:20:05;1.50;;;1.40;;
13075;SDS011;6604;52.484;13.330;2022-09-21T13:22:40;1.30;;;1.20;;
13075;SDS011;6604;52.484;13.330;2022-09-21T13:25:17;2.17;;;0.93;;
13075;SDS011;6604;52.484;13.330;2022-09-21T13:27:57;1.87;;;0.93;;
13075;SDS011;6604;52.484;13.330;2022-09-21T13:30:28;1.30;;;1.20;;
13075;SDS011;6604;52.484;13.330;2022-09-21T13:32:56;3.07;;;1.00;;
13075;SDS011;6604;52.484;13.330;2022-09-21T13:38:23;1.63;;;1.10;;
13075;SDS011;6604;52.484;13.330;2022-09-21T13:40:57;1.03;;;0.90;;
13075;SDS011;6604;52.484;13.330;2022-09-21T13:48:52;1.90;;;0.90;;
13075;SDS011;6604;52.484;13.330;2022-09-21T13:51:18;1.47;;;0.90;;
13075;SDS011;6604;52.484;13.330;2022-09-21T13:53:45;0.80;;;0.80;;
13075;SDS011;6604;52.484;13.330;2022-09-21T13:56:18;1.53;;;0.90;;
13075;SDS011;6604;52.484;13.330;2022-09-21T13:58:46;1.00;;;1.00;;
13075;SDS011;6604;52.484;13.330;2022-09-21T14:01:15;1.50;;;0.93;;
13075;SDS011;6604;52.484;13.330;2022-09-21T14:03:43;1.00;;;1.00;;
13075;SDS011;6604;52.484;13.330;2022-09-21T14:06:11;1.17;;;1.00;;
13075;SDS011;6604;52.484;13.330;2022-09-21T14:08:39;1.20;;;1.10;;
13075;SDS011;6604;52.484;13.330;2022-09-21T14:11:06;2.47;;;1.10;;
13075;SDS011;6604;52.484;13.330;2022-09-21T14:13:35;3.20;;;1.30;;
13075;SDS011;6604;52.484;13.330;2022-09-21T14:18:48;1.63;;;1.43;;
13075;SDS011;6604;52.484;13.330;2022-09-21T14:21:17;1.30;;;1.17;;
13075;SDS011;6604;52.484;13.330;2022-09-21T14:24:07;1.33;;;1.00;;
13075;SDS011;6604;52.484;13.330;2022-09-21T14:26:35;1.63;;;1.10;;
13075;SDS011;6604;52.484;13.330;2022-09-21T14:29:12;1.13;;;1.00;;
13075;SDS011;6604;52.484;13.330;2022-09-21T14:31:41;1.30;;;1.10;;
13075;SDS011;6604;52.484;13.330;2022-09-21T14:34:10;1.00;;;0.90;;
13075;SDS011;6604;52.484;13.330;2022-09-21T14:36:39;0.90;;;0.90;;
13075;SDS011;6604;52.484;13.330;2022-09-21T14:39:12;0.90;;;0.90;;
13075;SDS011;6604;52.484;13.330;2022-09-21T14:41:41;1.07;;;0.80;;
13075;SDS011;6604;52.484;13.330;2022-09-21T14:44:13;0.80;;;0.80;;
13075;SDS011;6604;52.484;13.330;2022-09-21T14:46:46;1.00;;;1.00;;
13075;SDS011;6604;52.484;13.330;2022-09-21T14:49:25;0.90;;;0.90;;
13075;SDS011;6604;52.484;13.330;2022-09-21T14:51:59;0.90;;;0.90;;
13075;SDS011;6604;52.484;13.330;2022-09-21T14:54:39;1.10;;;1.00;;
13075;SDS011;6604;52.484;13.330;2022-09-21T14:57:17;1.03;;;0.80;;
13075;SDS011;6604;52.484;13.330;2022-09-21T14:59:52;1.73;;;0.90;;
13075;SDS011;6604;52.484;13.330;2022-09-21T15:02:23;0.77;;;0.77;;
13075;SDS011;6604;52.484;13.330;2022-09-21T15:04:57;1.00;;;0.93;;
13075;SDS011;6604;52.484;13.330;2022-09-21T15:07:30;1.47;;;0.80;;
13075;SDS011;6604;52.484;13.330;2022-09-21T15:10:20;1.60;;;1.20;;
13075;SDS011;6604;52.484;13.330;2022-09-21T15:13:08;1.00;;;1.00;;
13075;SDS011;6604;52.484;13.330;2022-09-21T15:15:39;3.20;;;0.90;;
13075;SDS011;6604;52.484;13.330;2022-09-21T15:18:15;1.60;;;0.83;;
13075;SDS011;6604;52.484;13.330;2022-09-21T15:20:44;1.00;;;0.80;;
13075;SDS011;6604;52.484;13.330;2022-09-21T15:23:16;3.50;;;1.73;;
13075;SDS011;6604;52.484;13.330;2022-09-21T15:25:43;2.00;;;1.20;;
13075;SDS011;6604;52.484;13.330;2022-09-21T15:28:23;1.20;;;1.10;;
13075;SDS011;6604;52.484;13.330;2022-09-21T15:30:55;1.30;;;1.17;;
13075;SDS011;6604;52.484;13.330;2022-09-21T15:33:21;0.90;;;0.90;;
13075;SDS011;6604;52.484;13.330;2022-09-21T15:35:48;0.90;;;0.90;;
13075;SDS011;6604;52.484;13.330;2022-09-21T15:38:27;3.90;;;1.20;;
13075;SDS011;6604;52.484;13.330;2022-09-21T15:40:54;1.10;;;1.00;;
13075;SDS011;6604;52.484;13.330;2022-09-21T15:43:21;1.30;;;1.07;;
13075;SDS011;6604;52.484;13.330;2022-09-21T15:45:48;1.10;;;1.00;;
13075;SDS011;6604;52.484;13.330;2022-09-21T15:48:20;2.80;;;1.50;;
13075;SDS011;6604;52.484;13.330;2022-09-21T15:50:47;1.87;;;1.33;;
13075;SDS011;6604;52.484;13.330;2022-09-21T15:53:14;1.93;;;1.40;;
13075;SDS011;6604;52.484;13.330;2022-09-21T15:55:44;1.93;;;1.47;;
13075;SDS011;6604;52.484;13.330;2022-09-21T15:58:12;2.00;;;1.47;;
13075;SDS011;6604;52.484;13.330;2022-09-21T16:00:40;1.53;;;1.30;;
13075;SDS011;6604;52.484;13.330;2022-09-21T16:03:17;5.00;;;1.60;;
13075;SDS011;6604;52.484;13.330;2022-09-21T16:05:46;1.67;;;1.40;;
13075;SDS011;6604;52.484;13.330;2022-09-21T16:11:14;1.80;;;1.10;;
13075;SDS011;6604;52.484;13.330;2022-09-21T16:13:41;1.70;;;1.30;;
13075;SDS011;6604;52.484;13.330;2022-09-21T16:16:25;1.50;;;1.40;;
13075;SDS011;6604;52.484;13.330;2022-09-21T16:18:52;1.50;;;1.20;;
13075;SDS011;6604;52.484;13.330;2022-09-21T16:21:21;1.40;;;1.30;;
13075;SDS011;6604;52.484;13.330;2022-09-21T16:23:49;2.23;;;1.43;;
13075;SDS011;6604;52.484;13.330;2022-09-21T16:26:17;1.80;;;1.30;;
13075;SDS011;6604;52.484;13.330;2022-09-21T16:28:44;1.60;;;1.50;;
13075;SDS011;6604;52.484;13.330;2022-09-21T16:31:27;8.40;;;4.10;;
13075;SDS011;6604;52.484;13.330;2022-09-21T16:34:00;3.60;;;2.60;;
13075;SDS011;6604;52.484;13.330;2022-09-21T16:36:36;2.53;;;1.80;;
13075;SDS011;6604;52.484;13.330;2022-09-21T16:39:04;2.77;;;1.70;;
13075;SDS011;6604;52.484;13.330;2022-09-21T16:41:32;2.30;;;1.73;;
13075;SDS011;6604;52.484;13.330;2022-09-21T16:43:59;2.73;;;2.00;;
13075;SDS011;6604;52.484;13.330;2022-09-21T16:46:27;2.67;;;2.03;;
13075;SDS011;6604;52.484;13.330;2022-09-21T16:48:53;2.47;;;1.87;;
13075;SDS011;6604;52.484;13.330;2022-09-21T16:51:20;3.70;;;2.17;;
13075;SDS011;6604;52.484;13.330;2022-09-21T16:53:51;3.20;;;1.97;;
13075;SDS011;6604;52.484;13.330;2022-09-21T16:56:17;2.00;;;1.80;;
13075;SDS011;6604;52.484;13.330;2022-09-21T16:58:44;2.23;;;1.70;;
13075;SDS011;6604;52.484;13.330;2022-09-21T17:01:11;2.93;;;1.90;;
13075;SDS011;6604;52.484;13.330;2022-09-21T17:03:38;3.50;;;2.03;;
13075;SDS011;6604;52.484;13.330;2022-09-21T17:06:06;3.23;;;2.20;;
13075;SDS011;6604;52.484;13.330;2022-09-21T17:08:34;3.03;;;2.07;;
13075;SDS011;6604;52.484;13.330;2022-09-21T17:11:03;4.10;;;2.13;;
13075;SDS011;6604;52.484;13.330;2022-09-21T17:13:29;4.67;;;2.67;;
13075;SDS011;6604;52.484;13.330;2022-09-21T17:15:56;6.00;;;3.10;;
13075;SDS011;6604;52.484;13.330;2022-09-21T17:18:22;3.63;;;2.63;;
13075;SDS011;6604;52.484;13.330;2022-09-21T17:20:49;6.03;;;4.40;;
13075;SDS011;6604;52.484;13.330;2022-09-21T17:23:15;5.63;;;4.33;;
13075;SDS011;6604;52.484;13.330;2022-09-21T17:25:42;5.60;;;3.70;;
13075;SDS011;6604;52.484;13.330;2022-09-21T17:28:12;4.77;;;3.27;;
13075;SDS011;6604;52.484;13.330;2022-09-21T17:30:39;5.23;;;3.10;;
13075;SDS011;6604;52.484;13.330;2022-09-21T17:33:06;6.67;;;3.03;;
13075;SDS011;6604;52.484;13.330;2022-09-21T17:35:35;5.17;;;2.50;;
13075;SDS011;6604;52.484;13.330;2022-09-21T17:38:02;5.67;;;2.60;;
13075;SDS011;6604;52.484;13.330;2022-09-21T17:40:29;6.37;;;2.70;;
13075;SDS011;6604;52.484;13.330;2022-09-21T17:42:59;3.90;;;2.77;;
13075;SDS011;6604;52.484;13.330;2022-09-21T17:45:29;8.13;;;2.73;;
13075;SDS011;6604;52.484;13.330;2022-09-21T17:48:00;4.43;;;2.50;;
13075;SDS011;6604;52.484;13.330;2022-09-21T17:50:26;3.10;;;2.57;;
13075;SDS011;6604;52.484;13.330;2022-09-21T17:52:54;5.30;;;2.80;;
13075;SDS011;6604;52.484;13.330;2022-09-21T17:55:38;4.73;;;2.50;;
13075;SDS011;6604;52.484;13.330;2022-09-21T17:58:16;3.77;;;2.80;;
13075;SDS011;6604;52.484;13.330;2022-09-21T18:00:47;4.70;;;3.33;;
13075;SDS011;6604;52.484;13.330;2022-09-21T18:03:17;4.57;;;3.00;;
13075;SDS011;6604;52.484;13.330;2022-09-21T18:05:44;4.17;;;3.10;;
13075;SDS011;6604;52.484;13.330;2022-09-21T18:08:11;5.23;;;3.13;;
13075;SDS011;6604;52.484;13.330;2022-09-21T18:10:39;10.20;;;3.53;;
13075;SDS011;6604;52.484;13.330;2022-09-21T18:13:13;3.57;;;3.20;;
13075;SDS011;6604;52.484;13.330;2022-09-21T18:15:49;4.00;;;3.10;;
13075;SDS011;6604;52.484;13.330;2022-09-21T18:18:19;3.50;;;2.70;;
13075;SDS011;6604;52.484;13.330;2022-09-21T18:20:51;4.30;;;3.13;;
13075;SDS011;6604;52.484;13.330;2022-09-21T18:23:28;5.50;;;3.33;;
13075;SDS011;6604;52.484;13.330;2022-09-21T18:25:58;3.80;;;2.80;;
13075;SDS011;6604;52.484;13.330;2022-09-21T18:28:30;4.37;;;3.30;;
13075;SDS011;6604;52.484;13.330;2022-09-21T18:31:05;3.97;;;3.23;;
13075;SDS011;6604;52.484;13.330;2022-09-21T18:33:36;6.33;;;4.30;;
13075;SDS011;6604;52.484;13.330;2022-09-21T18:36:08;5.47;;;3.33;;
13075;SDS011;6604;52.484;13.330;2022-09-21T18:38:39;5.90;;;3.00;;
13075;SDS011;6604;52.484;13.330;2022-09-21T18:41:09;5.90;;;3.43;;
13075;SDS011;6604;52.484;13.330;2022-09-21T18:43:41;3.47;;;3.00;;
13075;SDS011;6604;52.484;13.330;2022-09-21T18:46:11;5.50;;;2.70;;
13075;SDS011;6604;52.484;13.330;2022-09-21T18:48:50;4.07;;;2.87;;
13075;SDS011;6604;52.484;13.330;2022-09-21T18:51:20;4.93;;;2.97;;
13075;SDS011;6604;52.484;13.330;2022-09-21T18:53:48;6.60;;;3.13;;
13075;SDS011;6604;52.484;13.330;2022-09-21T18:56:17;4.27;;;3.10;;
13075;SDS011;6604;52.484;13.330;2022-09-21T18:58:43;5.37;;;4.00;;
13075;SDS011;6604;52.484;13.330;2022-09-21T19:01:12;8.87;;;5.17;;
13075;SDS011;6604;52.484;13.330;2022-09-21T19:03:43;5.63;;;3.37;;
13075;SDS011;6604;52.484;13.330;2022-09-21T19:06:13;5.90;;;3.23;;
13075;SDS011;6604;52.484;13.330;2022-09-21T19:08:41;4.33;;;3.50;;
13075;SDS011;6604;52.484;13.330;2022-09-21T19:11:11;7.70;;;3.53;;
13075;SDS011;6604;52.484;13.330;2022-09-21T19:13:41;6.20;;;3.77;;
13075;SDS011;6604;52.484;13.330;2022-09-21T19:16:13;5.00;;;3.60;;
13075;SDS011;6604;52.484;13.330;2022-09-21T19:18:42;6.23;;;4.13;;
13075;SDS011;6604;52.484;13.330;2022-09-21T19:21:13;6.53;;;4.30;;
13075;SDS011;6604;52.484;13.330;2022-09-21T19:23:46;9.07;;;4.17;;
13075;SDS011;6604;52.484;13.330;2022-09-21T19:26:17;7.30;;;4.13;;
13075;SDS011;6604;52.484;13.330;2022-09-21T19:31:29;7.83;;;4.87;;
13075;SDS011;6604;52.484;13.330;2022-09-21T19:33:57;4.90;;;3.43;;
13075;SDS011;6604;52.484;13.330;2022-09-21T19:36:23;5.43;;;3.73;;
13075;SDS011;6604;52.484;13.330;2022-09-21T19:38:51;4.90;;;3.50;;
13075;SDS011;6604;52.484;13.330;2022-09-21T19:41:23;4.17;;;3.27;;
13075;SDS011;6604;52.484;13.330;2022-09-21T19:43:54;5.27;;;3.93;;
13075;SDS011;6604;52.484;13.330;2022-09-21T19:46:23;7.20;;;3.87;;
13075;SDS011;6604;52.484;13.330;2022-09-21T19:48:56;6.93;;;4.63;;
13075;SDS011;6604;52.484;13.330;2022-09-21T19:51:28;7.27;;;3.90;;
13075;SDS011;6604;52.484;13.330;2022-09-21T19:53:57;6.87;;;4.20;;
13075;SDS011;6604;52.484;13.330;2022-09-21T19:56:44;4.63;;;3.77;;
13075;SDS011;6604;52.484;13.330;2022-09-21T19:59:29;6.27;;;3.67;;
13075;SDS011;6604;52.484;13.330;2022-09-21T20:02:11;6.23;;;3.67;;
13075;SDS011;6604;52.484;13.330;2022-09-21T20:04:41;4.80;;;3.70;;
13075;SDS011;6604;52.484;13.330;2022-09-21T20:07:12;5.10;;;3.47;;
13075;SDS011;6604;52.484;13.330;2022-09-21T20:09:43;4.80;;;3.77;;
13075;SDS011;6604;52.484;13.330;2022-09-21T20:12:12;5.20;;;3.37;;
13075;SDS011;6604;52.484;13.330;2022-09-21T20:14:44;7.10;;;3.63;;
13075;SDS011;6604;52.484;13.330;2022-09-21T20:17:15;5.87;;;3.60;;
13075;SDS011;6604;52.484;13.330;2022-09-21T20:19:46;7.90;;;3.67;;
13075;SDS011;6604;52.484;13.330;2022-09-21T20:22:16;7.23;;;4.23;;
13075;SDS011;6604;52.484;13.330;2022-09-21T20:24:49;4.97;;;3.77;;
13075;SDS011;6604;52.484;13.330;2022-09-21T20:27:27;6.57;;;3.90;;
13075;SDS011;6604;52.484;13.330;2022-09-21T20:29:58;4.87;;;3.43;;
13075;SDS011;6604;52.484;13.330;2022-09-21T20:32:25;4.80;;;3.93;;
13075;SDS011;6604;52.484;13.330;2022-09-21T20:34:52;5.40;;;3.93;;
13075;SDS011;6604;52.484;13.330;2022-09-21T20:37:19;6.97;;;3.77;;
13075;SDS011;6604;52.484;13.330;2022-09-21T20:39:47;6.73;;;3.67;;
13075;SDS011;6604;52.484;13.330;2022-09-21T20:42:14;6.37;;;3.90;;
13075;SDS011;6604;52.484;13.330;2022-09-21T20:44:42;5.30;;;4.47;;
13075;SDS011;6604;52.484;13.330;2022-09-21T20:47:09;5.33;;;3.70;;
13075;SDS011;6604;52.484;13.330;2022-09-21T20:49:35;5.57;;;3.67;;
13075;SDS011;6604;52.484;13.330;2022-09-21T20:52:03;9.30;;;5.47;;
13075;SDS011;6604;52.484;13.330;2022-09-21T20:54:29;5.53;;;3.90;;
13075;SDS011;6604;52.484;13.330;2022-09-21T20:56:56;9.70;;;3.90;;
13075;SDS011;6604;52.484;13.330;2022-09-21T20:59:22;7.47;;;4.17;;
13075;SDS011;6604;52.484;13.330;2022-09-21T21:01:48;5.30;;;3.60;;
13075;SDS011;6604;52.484;13.330;2022-09-21T21:04:15;6.77;;;3.60;;
13075;SDS011;6604;52.484;13.330;2022-09-21T21:06:41;5.67;;;4.20;;
13075;SDS011;6604;52.484;13.330;2022-09-21T21:09:09;4.90;;;3.87;;
13075;SDS011;6604;52.484;13.330;2022-09-21T21:11:35;8.40;;;3.97;;
13075;SDS011;6604;52.484;13.330;2022-09-21T21:14:02;7.13;;;3.80;;
13075;SDS011;6604;52.484;13.330;2022-09-21T21:16:28;8.20;;;4.13;;
13075;SDS011;6604;52.484;13.330;2022-09-21T21:18:55;4.60;;;3.97;;
13075;SDS011;6604;52.484;13.330;2022-09-21T21:21:21;5.40;;;4.17;;
13075;SDS011;6604;52.484;13.330;2022-09-21T21:23:48;6.17;;;4.50;;
13075;SDS011;6604;52.484;13.330;2022-09-21T21:26:34;5.93;;;3.70;;
13075;SDS011;6604;52.484;13.330;2022-09-21T21:29:00;5.17;;;3.80;;
